createdAt,value
2019-04-21T00:00:54.205Z,3.60
2019-04-21T00:03:33.390Z,3.69
2019-04-21T00:06:15.580Z,3.72
2019-04-21T00:08:48.409Z,3.72
2019-04-21T00:11:29.850Z,3.69
2019-04-21T00:13:52.591Z,3.73
2019-04-21T00:16:17.171Z,3.97
2019-04-21T00:19:07.190Z,3.91
2019-04-21T00:21:40.405Z,3.82
2019-04-21T00:24:28.918Z,3.68
2019-04-21T00:27:07.015Z,3.59
2019-04-21T00:29:56.261Z,3.59
2019-04-21T00:32:10.419Z,3.48
2019-04-21T00:34:28.173Z,3.50
2019-04-21T00:37:12.135Z,3.40
2019-04-21T00:40:01.834Z,3.33
2019-04-21T00:42:22.846Z,3.26
2019-04-21T00:45:00.520Z,3.32
2019-04-21T00:47:34.067Z,3.30
2019-04-21T00:50:05.219Z,3.20
2019-04-21T00:55:34.147Z,3.17
2019-04-21T00:58:03.821Z,3.23
2019-04-21T01:00:32.477Z,3.24
2019-04-21T01:03:12.827Z,3.19
2019-04-21T01:05:48.353Z,3.22
2019-04-21T01:08:14.246Z,3.18
2019-04-21T01:10:38.108Z,3.17
2019-04-21T01:13:27.834Z,3.11
2019-04-21T01:16:00.797Z,3.12
2019-04-21T01:18:31.431Z,3.01
2019-04-21T01:20:41.168Z,2.99
2019-04-21T01:23:12.845Z,3.00
2019-04-21T01:25:55.447Z,3.16
2019-04-21T01:28:34.030Z,3.05
2019-04-21T01:31:08.813Z,2.97
2019-04-21T01:33:44.963Z,2.88
2019-04-21T01:36:14.582Z,2.87
2019-04-21T01:38:58.983Z,2.84
2019-04-21T01:41:25.516Z,2.79
2019-04-21T01:43:56.985Z,2.79
2019-04-21T01:46:30.911Z,2.78
2019-04-21T01:49:03.318Z,2.82
2019-04-21T01:51:57.942Z,2.83
2019-04-21T01:54:23.783Z,2.78
2019-04-21T01:57:03.372Z,2.76
2019-04-21T01:59:38.028Z,2.66
2019-04-21T02:02:19.350Z,2.67
2019-04-21T02:04:57.576Z,2.66
2019-04-21T02:07:24.892Z,2.71
2019-04-21T02:09:59.351Z,2.71
2019-04-21T02:12:27.902Z,2.78
2019-04-21T02:15:04.562Z,2.63
2019-04-21T02:17:36.768Z,2.63
2019-04-21T02:20:02.735Z,2.63
2019-04-21T02:22:59.144Z,2.63
2019-04-21T02:25:16.583Z,2.66
2019-04-21T02:27:54.845Z,2.65
2019-04-21T02:30:36.974Z,2.63
2019-04-21T02:33:12.857Z,2.56
2019-04-21T02:38:23.842Z,2.56
2019-04-21T02:40:47.333Z,2.53
2019-04-21T02:43:22.898Z,2.50
2019-04-21T02:45:55.959Z,2.48
2019-04-21T02:50:50.040Z,2.43
2019-04-21T02:58:51.190Z,2.55
2019-04-21T03:01:25.991Z,2.62
2019-04-21T03:03:52.753Z,2.71
2019-04-21T03:06:59.946Z,2.74
2019-04-21T03:09:18.573Z,2.80
2019-04-21T03:11:57.942Z,2.84
2019-04-21T03:16:47.229Z,3.13
2019-04-21T03:19:37.956Z,3.19
2019-04-21T03:22:07.138Z,3.30
2019-04-21T03:25:00.886Z,3.38
2019-04-21T03:27:18.676Z,3.47
2019-04-21T03:29:47.747Z,3.54
2019-04-21T03:35:26.201Z,3.77
2019-04-21T03:37:25.167Z,3.91
2019-04-21T03:40:05.146Z,4.01
2019-04-21T03:45:06.718Z,4.23
2019-04-21T03:50:29.702Z,4.51
2019-04-21T03:52:48.186Z,4.60
2019-04-21T04:00:59.513Z,4.91
2019-04-21T04:06:20.833Z,5.23
2019-04-21T04:08:57.801Z,5.41
2019-04-21T04:14:09.761Z,5.67
2019-04-21T04:24:19.598Z,6.25
2019-04-21T04:26:49.017Z,6.36
2019-04-21T04:29:19.857Z,6.49
2019-04-21T04:34:27.612Z,6.77
2019-04-21T04:37:05.908Z,6.81
2019-04-21T04:50:15.447Z,7.51
2019-04-21T04:55:06.784Z,7.75
2019-04-21T04:57:57.746Z,7.93
2019-04-21T05:02:48.840Z,8.27
2019-04-21T05:05:26.764Z,8.41
2019-04-21T05:07:58.006Z,8.48
2019-04-21T05:10:44.822Z,8.45
2019-04-21T05:12:56.980Z,8.62
2019-04-21T05:15:42.116Z,8.59
2019-04-21T05:18:05.395Z,8.74
2019-04-21T05:20:50.648Z,8.93
2019-04-21T05:23:06.333Z,9.10
2019-04-21T05:25:37.869Z,9.12
2019-04-21T05:28:09.066Z,9.32
2019-04-21T05:30:58.414Z,9.45
2019-04-21T05:33:33.224Z,9.50
2019-04-21T05:36:23.907Z,9.63
2019-04-21T05:38:59.557Z,9.60
2019-04-21T05:41:29.140Z,9.64
2019-04-21T05:44:12.811Z,9.69
2019-04-21T05:46:49.572Z,9.87
2019-04-21T05:49:20.590Z,10.11
2019-04-21T05:51:58.344Z,10.29
2019-04-21T05:54:44.088Z,10.42
2019-04-21T05:57:10.160Z,10.53
2019-04-21T05:59:43.616Z,10.73
2019-04-21T06:02:22.397Z,10.86
2019-04-21T06:05:05.868Z,10.85
2019-04-21T06:07:30.232Z,11.19
2019-04-21T06:09:59.587Z,11.33
2019-04-21T06:12:38.261Z,11.12
2019-04-21T06:15:12.293Z,11.22
2019-04-21T06:17:44.569Z,11.44
2019-04-21T06:20:13.678Z,11.65
2019-04-21T06:22:54.800Z,11.69
2019-04-21T06:27:57.468Z,11.89
2019-04-21T06:30:32.136Z,12.01
2019-04-21T06:33:00.290Z,12.24
2019-04-21T06:36:21.446Z,12.42
2019-04-21T06:38:56.952Z,12.52
2019-04-21T06:41:21.377Z,12.46
2019-04-21T06:43:59.936Z,12.77
2019-04-21T06:46:33.447Z,12.60
2019-04-21T06:51:32.296Z,12.86
2019-04-21T06:54:09.502Z,12.82
2019-04-21T06:56:46.461Z,12.53
2019-04-21T06:59:09.629Z,12.69
2019-04-21T07:01:51.457Z,13.00
2019-04-21T07:06:57.491Z,12.95
2019-04-21T07:09:48.390Z,13.01
2019-04-21T07:11:59.852Z,13.11
2019-04-21T07:14:38.461Z,13.05
2019-04-21T07:17:16.228Z,12.91
2019-04-21T07:22:17.751Z,13.19
2019-04-21T07:24:54.018Z,13.44
2019-04-21T07:27:23.974Z,13.61
2019-04-21T07:32:29.045Z,13.52
2019-04-21T07:35:03.928Z,13.91
2019-04-21T07:37:35.518Z,13.68
2019-04-21T07:40:05.588Z,13.87
2019-04-21T07:42:38.057Z,14.06
2019-04-21T07:45:13.006Z,14.20
2019-04-21T07:47:50.787Z,14.00
2019-04-21T07:50:47.489Z,14.17
2019-04-21T07:53:28.761Z,14.20
2019-04-21T07:55:37.359Z,14.11
2019-04-21T07:58:36.390Z,14.43
2019-04-21T08:01:07.416Z,14.22
2019-04-21T08:03:33.639Z,14.46
2019-04-21T08:06:32.009Z,14.45
2019-04-21T08:08:42.187Z,14.70
2019-04-21T08:11:09.600Z,14.61
2019-04-21T08:13:48.797Z,14.37
2019-04-21T08:16:25.396Z,14.47
2019-04-21T08:18:52.431Z,14.31
2019-04-21T08:21:30.841Z,14.68
2019-04-21T08:23:55.688Z,14.37
2019-04-21T08:26:36.991Z,14.49
2019-04-21T08:29:14.490Z,14.66
2019-04-21T08:31:50.029Z,14.73
2019-04-21T08:34:14.015Z,14.48
2019-04-21T08:36:44.899Z,14.61
2019-04-21T08:39:24.112Z,14.53
2019-04-21T08:41:55.949Z,14.39
2019-04-21T08:44:33.358Z,14.40
2019-04-21T08:47:09.645Z,14.50
2019-04-21T08:49:35.087Z,14.38
2019-04-21T08:52:20.979Z,14.90
2019-04-21T08:54:47.096Z,14.48
2019-04-21T08:57:37.695Z,14.66
2019-04-21T09:02:47.496Z,14.89
2019-04-21T09:05:20.651Z,14.81
2019-04-21T09:07:57.489Z,15.30
2019-04-21T09:10:33.421Z,14.70
2019-04-21T09:12:58.916Z,15.16
2019-04-21T09:15:33.753Z,15.36
2019-04-21T09:18:05.373Z,15.02
2019-04-21T09:20:47.362Z,15.02
2019-04-21T09:23:18.101Z,14.76
2019-04-21T09:25:46.232Z,15.38
2019-04-21T09:28:18.309Z,15.10
2019-04-21T09:30:43.393Z,15.19
2019-04-21T09:33:09.261Z,14.79
2019-04-21T09:35:50.070Z,15.18
2019-04-21T09:38:27.580Z,15.18
2019-04-21T09:40:54.389Z,15.30
2019-04-21T09:43:35.480Z,15.19
2019-04-21T09:45:58.892Z,15.62
2019-04-21T09:48:45.650Z,15.92
2019-04-21T09:51:06.579Z,15.62
2019-04-21T09:53:42.222Z,16.01
2019-04-21T09:56:17.849Z,15.64
2019-04-21T09:58:49.548Z,16.08
2019-04-21T10:01:28.250Z,16.28
2019-04-21T10:03:57.220Z,16.35
2019-04-21T10:06:26.298Z,15.92
2019-04-21T10:09:04.024Z,15.92
2019-04-21T10:11:31.143Z,15.93
2019-04-21T10:14:03.309Z,16.11
2019-04-21T10:16:36.486Z,16.53
2019-04-21T10:19:08.862Z,17.17
2019-04-21T10:21:40.395Z,17.36
2019-04-21T10:24:12.505Z,17.68
2019-04-21T10:26:45.146Z,18.31
2019-04-21T10:29:23.721Z,18.90
2019-04-21T10:31:50.527Z,20.32
2019-04-21T10:34:23.105Z,21.07
2019-04-21T10:37:00.744Z,20.39
2019-04-21T10:39:33.662Z,20.67
2019-04-21T10:42:05.672Z,20.81
2019-04-21T10:44:37.311Z,21.64
2019-04-21T10:47:08.849Z,20.80
2019-04-21T10:49:40.369Z,21.24
2019-04-21T10:52:13.327Z,21.51
2019-04-21T10:55:07.288Z,21.67
2019-04-21T10:57:22.178Z,22.41
2019-04-21T10:59:55.919Z,22.66
2019-04-21T11:02:34.884Z,22.18
2019-04-21T11:05:09.082Z,21.75
2019-04-21T11:08:05.123Z,22.43
2019-04-21T11:10:25.784Z,23.68
2019-04-21T11:12:58.618Z,22.86
2019-04-21T11:15:31.366Z,23.08
2019-04-21T11:18:04.015Z,23.38
2019-04-21T11:20:35.467Z,23.62
2019-04-21T11:23:08.364Z,23.74
2019-04-21T11:25:41.966Z,23.55
2019-04-21T11:28:14.316Z,23.59
2019-04-21T11:30:46.702Z,24.09
2019-04-21T11:33:21.304Z,24.16
2019-04-21T11:35:53.283Z,24.21
2019-04-21T11:38:55.818Z,22.25
2019-04-21T11:41:09.886Z,22.24
2019-04-21T11:43:43.231Z,22.65
2019-04-21T11:46:16.147Z,23.74
2019-04-21T11:48:48.343Z,24.77
2019-04-21T11:51:19.511Z,25.47
2019-04-21T11:53:50.906Z,24.27
2019-04-21T11:56:25.117Z,24.00
2019-04-21T11:58:57.788Z,24.55
2019-04-21T12:01:29.813Z,25.02
2019-04-21T12:04:01.649Z,25.50
2019-04-21T12:06:40.916Z,24.68
2019-04-21T12:09:09.959Z,23.60
2019-04-21T12:11:41.547Z,24.65
2019-04-21T12:14:14.228Z,24.05
2019-04-21T12:16:46.901Z,24.57
2019-04-21T12:19:22.625Z,24.88
2019-04-21T12:22:05.098Z,24.49
2019-04-21T12:24:31.227Z,25.63
2019-04-21T12:27:02.433Z,23.65
2019-04-21T12:29:33.838Z,24.61
2019-04-21T12:32:16.009Z,24.18
2019-04-21T12:34:50.505Z,24.46
2019-04-21T12:37:20.535Z,24.16
2019-04-21T12:39:52.911Z,23.66
2019-04-21T12:42:24.902Z,24.46
2019-04-21T12:44:57.314Z,24.74
2019-04-21T12:47:30.015Z,23.22
2019-04-21T12:50:02.731Z,22.60
2019-04-21T12:52:35.725Z,23.60
2019-04-21T12:55:09.802Z,24.99
2019-04-21T12:57:43.538Z,25.43
2019-04-21T13:00:18.527Z,25.31
2019-04-21T13:02:49.908Z,26.06
2019-04-21T13:05:22.660Z,25.10
2019-04-21T13:07:55.502Z,23.52
2019-04-21T13:10:26.883Z,24.14
2019-04-21T13:12:59.728Z,24.62
2019-04-21T13:15:31.698Z,24.87
2019-04-21T13:18:02.915Z,25.03
2019-04-21T13:20:35.888Z,26.30
2019-04-21T13:23:08.570Z,24.85
2019-04-21T13:25:41.784Z,25.51
2019-04-21T13:28:14.689Z,25.52
2019-04-21T13:30:48.730Z,25.52
2019-04-21T13:33:21.031Z,26.09
2019-04-21T13:35:55.263Z,24.31
2019-04-21T13:38:35.154Z,21.20
2019-04-21T13:41:29.651Z,21.88
2019-04-21T13:43:47.511Z,24.27
2019-04-21T13:46:27.175Z,24.35
2019-04-21T13:49:05.243Z,24.48
2019-04-21T13:51:41.633Z,23.63
2019-04-21T13:54:14.033Z,22.41
2019-04-21T13:56:47.998Z,19.88
2019-04-21T13:59:22.484Z,19.36
2019-04-21T14:01:56.761Z,18.05
2019-04-21T14:04:29.930Z,17.10
2019-04-21T14:07:02.505Z,17.07
2019-04-21T14:09:43.899Z,17.28
2019-04-21T14:12:09.679Z,17.57
2019-04-21T14:14:42.042Z,18.04
2019-04-21T14:17:15.141Z,17.71
2019-04-21T14:19:49.262Z,17.31
2019-04-21T14:22:24.357Z,16.89
2019-04-21T14:25:01.821Z,16.74
2019-04-21T14:27:36.521Z,16.68
2019-04-21T14:30:10.492Z,17.97
2019-04-21T14:33:02.326Z,19.00
2019-04-21T14:35:36.715Z,19.41
2019-04-21T14:38:10.837Z,19.26
2019-04-21T14:40:44.146Z,17.99
2019-04-21T14:43:16.566Z,18.23
2019-04-21T14:46:06.441Z,18.02
2019-04-21T14:48:57.235Z,17.39
2019-04-21T14:51:38.967Z,16.87
2019-04-21T14:54:12.449Z,16.64
2019-04-21T14:56:44.962Z,16.35
2019-04-21T14:59:17.273Z,16.30
2019-04-21T15:01:50.049Z,16.14
2019-04-21T15:04:22.879Z,16.09
2019-04-21T15:06:55.521Z,15.61
2019-04-21T15:09:27.189Z,15.29
2019-04-21T15:12:00.195Z,15.25
2019-04-21T15:14:33.941Z,14.95
2019-04-21T15:17:05.525Z,14.81
2019-04-21T15:19:38.407Z,14.75
2019-04-21T15:22:12.332Z,14.57
2019-04-21T15:24:44.510Z,14.51
2019-04-21T15:27:16.859Z,14.48
2019-04-21T15:29:51.065Z,14.44
2019-04-21T15:32:22.743Z,14.44
2019-04-21T15:34:56.350Z,14.41
2019-04-21T15:37:29.133Z,14.40
2019-04-21T15:40:18.127Z,14.31
2019-04-21T15:42:42.192Z,14.30
2019-04-21T15:45:14.604Z,14.30
2019-04-21T15:47:47.499Z,14.32
2019-04-21T15:50:20.184Z,14.29
2019-04-21T15:52:53.842Z,14.23
2019-04-21T15:55:44.515Z,14.16
2019-04-21T15:58:22.776Z,14.15
2019-04-21T16:00:56.431Z,14.13
2019-04-21T16:03:31.118Z,14.05
2019-04-21T16:06:03.284Z,13.94
2019-04-21T16:08:35.240Z,13.95
2019-04-21T16:11:11.092Z,13.90
2019-04-21T16:13:41.725Z,13.80
2019-04-21T16:16:14.661Z,13.73
2019-04-21T16:18:46.262Z,13.60
2019-04-21T16:21:18.074Z,13.51
2019-04-21T16:23:50.765Z,13.57
2019-04-21T16:26:22.573Z,13.42
2019-04-21T16:28:55.279Z,13.53
2019-04-21T16:31:27.904Z,13.52
2019-04-21T16:34:00.935Z,13.43
2019-04-21T16:36:33.874Z,13.36
2019-04-21T16:39:07.339Z,13.22
2019-04-21T16:41:40.384Z,13.03
2019-04-21T16:44:13.405Z,12.95
2019-04-21T16:46:45.454Z,12.82
2019-04-21T16:49:17.881Z,12.70
2019-04-21T16:52:12.190Z,12.57
2019-04-21T16:54:47.830Z,12.60
2019-04-21T16:57:39.815Z,12.47
2019-04-21T17:00:26.418Z,12.53
2019-04-21T17:02:48.059Z,12.43
2019-04-21T17:05:30.049Z,12.55
2019-04-21T17:08:03.952Z,12.39
2019-04-21T17:10:36.057Z,12.18
2019-04-21T17:13:09.887Z,12.03
2019-04-21T17:15:53.152Z,11.93
2019-04-21T17:18:33.115Z,11.87
2019-04-21T17:20:55.389Z,11.81
2019-04-21T17:23:22.226Z,11.81
2019-04-21T17:25:55.190Z,11.70
2019-04-21T17:28:27.843Z,11.58
2019-04-21T17:31:00.111Z,11.50
2019-04-21T17:33:33.863Z,11.37
2019-04-21T17:36:07.182Z,11.29
2019-04-21T17:38:39.717Z,11.20
2019-04-21T17:41:25.109Z,11.20
2019-04-21T17:43:46.003Z,11.18
2019-04-21T17:46:22.956Z,11.09
2019-04-21T17:48:50.849Z,11.07
2019-04-21T17:51:25.643Z,11.03
2019-04-21T17:54:13.669Z,10.99
2019-04-21T17:57:16.288Z,10.94
2019-04-21T17:59:45.134Z,10.80
2019-04-21T18:02:05.151Z,10.70
2019-04-21T18:04:43.177Z,10.59
2019-04-21T18:07:21.533Z,10.43
2019-04-21T18:12:34.886Z,10.38
2019-04-21T18:14:59.838Z,10.28
2019-04-21T18:17:24.666Z,10.19
2019-04-21T18:19:57.278Z,10.07
2019-04-21T18:22:39.536Z,10.02
2019-04-21T18:25:12.472Z,9.89
2019-04-21T18:27:43.132Z,9.87
2019-04-21T18:30:52.358Z,9.84
2019-04-21T18:33:29.928Z,9.75
2019-04-21T18:36:02.892Z,9.69
2019-04-21T18:39:00.068Z,9.57
2019-04-21T18:41:19.618Z,9.52
2019-04-21T18:47:07.368Z,9.34
2019-04-21T18:49:41.827Z,9.21
2019-04-21T18:52:22.519Z,9.14
2019-04-21T18:55:02.889Z,9.04
2019-04-21T18:57:30.633Z,9.01
2019-04-21T18:59:55.345Z,8.96
2019-04-21T19:02:31.723Z,8.88
2019-04-21T19:05:07.858Z,8.85
2019-04-21T19:07:55.802Z,8.80
2019-04-21T19:10:35.969Z,8.78
2019-04-21T19:15:33.845Z,8.77
2019-04-21T19:20:44.808Z,8.59
2019-04-21T19:23:26.989Z,8.56
2019-04-21T19:26:03.723Z,8.52
2019-04-21T19:28:27.056Z,8.50
2019-04-21T19:31:04.945Z,8.51
2019-04-21T19:33:24.107Z,8.59
2019-04-21T19:35:47.729Z,8.57
2019-04-21T19:38:30.194Z,8.52
2019-04-21T19:41:10.395Z,8.47
2019-04-21T19:43:49.187Z,8.44
2019-04-21T19:46:19.361Z,8.37
2019-04-21T19:49:01.190Z,8.39
2019-04-21T19:51:23.208Z,8.40
2019-04-21T19:53:53.860Z,8.33
2019-04-21T19:56:16.188Z,8.34
2019-04-21T19:58:50.780Z,8.32
2019-04-21T20:01:23.552Z,8.36
2019-04-21T20:03:59.108Z,8.40
2019-04-21T20:06:45.518Z,8.41
2019-04-21T20:09:22.010Z,8.41
2019-04-21T20:11:55.495Z,8.39
2019-04-21T20:16:59.258Z,8.42
2019-04-21T20:19:22.927Z,8.48
2019-04-21T20:21:56.937Z,8.46
2019-04-21T20:24:32.027Z,8.44
2019-04-21T20:27:11.404Z,8.36
2019-04-21T20:29:57.992Z,8.34
2019-04-21T20:32:45.313Z,8.17
2019-04-21T20:35:12.479Z,8.26
2019-04-21T20:37:31.692Z,8.19
2019-04-21T20:39:58.393Z,8.20
2019-04-21T20:42:38.999Z,8.21
2019-04-21T20:45:32.003Z,8.09
2019-04-21T20:47:39.421Z,7.98
2019-04-21T20:50:19.687Z,7.98
2019-04-21T20:53:00.020Z,7.98
2019-04-21T20:55:22.407Z,8.18
2019-04-21T20:57:59.706Z,8.32
2019-04-21T21:00:45.694Z,8.42
2019-04-21T21:03:12.024Z,8.33
2019-04-21T21:05:42.473Z,8.23
2019-04-21T21:08:29.514Z,8.20
2019-04-21T21:10:57.510Z,8.11
2019-04-21T21:13:41.329Z,8.08
2019-04-21T21:16:15.117Z,8.11
2019-04-21T21:19:15.774Z,8.08
2019-04-21T21:21:11.586Z,8.04
2019-04-21T21:23:47.780Z,7.97
2019-04-21T21:26:25.632Z,8.02
2019-04-21T21:28:51.421Z,8.05
2019-04-21T21:31:35.723Z,7.97
2019-04-21T21:34:21.178Z,7.93
2019-04-21T21:36:36.471Z,7.81
2019-04-21T21:39:09.617Z,7.77
2019-04-21T21:41:31.796Z,7.81
2019-04-21T21:44:14.848Z,7.72
2019-04-21T21:46:53.833Z,7.58
2019-04-21T21:49:36.971Z,7.48
2019-04-21T21:51:59.274Z,7.41
2019-04-21T21:54:25.586Z,7.36
2019-04-21T21:56:58.557Z,7.29
2019-04-21T21:59:33.664Z,7.25
2019-04-21T22:02:05.121Z,7.19
2019-04-21T22:04:38.944Z,7.17
2019-04-21T22:07:15.152Z,7.13
2019-04-21T22:09:44.309Z,7.08
2019-04-21T22:12:18.175Z,7.09
2019-04-21T22:14:54.090Z,7.10
2019-04-21T22:17:41.698Z,7.04
2019-04-21T22:20:13.407Z,6.96
2019-04-21T22:22:42.560Z,6.89
2019-04-21T22:25:12.716Z,6.93
2019-04-21T22:27:41.052Z,6.84
2019-04-21T22:30:14.718Z,6.90
2019-04-21T22:32:53.684Z,6.88
2019-04-21T22:35:27.152Z,6.90
2019-04-21T22:38:10.816Z,6.83
2019-04-21T22:40:44.048Z,6.83
2019-04-21T22:43:15.904Z,6.81
2019-04-21T22:45:35.578Z,6.77
2019-04-21T22:48:15.559Z,6.75
2019-04-21T22:50:42.354Z,6.70
2019-04-21T22:53:17.204Z,6.61
2019-04-21T22:55:49.512Z,6.52
2019-04-21T22:58:28.294Z,6.46
2019-04-21T23:00:57.123Z,6.44
2019-04-21T23:03:28.888Z,6.44
2019-04-21T23:06:11.059Z,6.40
2019-04-21T23:08:40.062Z,6.38
2019-04-21T23:11:12.420Z,6.40
2019-04-21T23:13:51.669Z,6.36
2019-04-21T23:16:21.470Z,6.29
2019-04-21T23:19:14.331Z,6.34
2019-04-21T23:21:48.939Z,6.27
2019-04-21T23:24:17.436Z,6.23
2019-04-21T23:26:48.658Z,6.21
2019-04-21T23:29:25.730Z,6.16
2019-04-21T23:31:55.110Z,6.14
2019-04-21T23:34:18.371Z,6.15
2019-04-21T23:36:53.056Z,6.06
2019-04-21T23:39:23.368Z,6.06
2019-04-21T23:41:55.418Z,5.97
2019-04-21T23:44:28.169Z,5.98
2019-04-21T23:47:03.411Z,5.91
2019-04-21T23:49:43.007Z,5.94
2019-04-21T23:52:11.921Z,5.95
2019-04-21T23:54:41.070Z,5.90
2019-04-21T23:57:20.845Z,5.94
2019-04-21T23:59:50.402Z,5.92
